sensor_id;sensor_type;location;lat;lon;timestamp;P1;durP1;ratioP1;P2;durP2;ratioP2
59024;SDS011;44806;48.008;13.666;2022-08-19T00:00:21;498.10;;;66.93;;
59024;SDS011;44806;48.008;13.666;2022-08-19T00:02:48;861.22;;;109.15;;
59024;SDS011;44806;48.008;13.666;2022-08-19T00:05:16;988.88;;;134.55;;
59024;SDS011;44806;48.008;13.666;2022-08-19T00:07:44;736.75;;;94.93;;
59024;SDS011;44806;48.008;13.666;2022-08-19T00:10:12;779.83;;;110.40;;
59024;SDS011;44806;48.008;13.666;2022-08-19T00:12:41;1036.03;;;142.73;;
59024;SDS011;44806;48.008;13.666;2022-08-19T00:15:12;1999.90;;;261.92;;
59024;SDS011;44806;48.008;13.666;2022-08-19T00:17:41;593.35;;;78.28;;
59024;SDS011;44806;48.008;13.666;2022-08-19T00:20:10;720.00;;;103.28;;
59024;SDS011;44806;48.008;13.666;2022-08-19T00:22:41;1999.90;;;253.48;;
59024;SDS011;44806;48.008;13.666;2022-08-19T00:25:09;698.42;;;97.18;;
59024;SDS011;44806;48.008;13.666;2022-08-19T00:27:37;1138.30;;;152.57;;
59024;SDS011;44806;48.008;13.666;2022-08-19T00:30:06;715.17;;;106.35;;
59024;SDS011;44806;48.008;13.666;2022-08-19T00:32:36;478.58;;;68.80;;
59024;SDS011;44806;48.008;13.666;2022-08-19T00:35:04;1925.50;;;239.43;;
59024;SDS011;44806;48.008;13.666;2022-08-19T00:37:32;801.30;;;100.80;;
59024;SDS011;44806;48.008;13.666;2022-08-19T00:40:00;1133.95;;;153.45;;
59024;SDS011;44806;48.008;13.666;2022-08-19T00:42:28;377.75;;;68.22;;
59024;SDS011;44806;48.008;13.666;2022-08-19T00:44:56;1319.32;;;164.88;;
59024;SDS011;44806;48.008;13.666;2022-08-19T00:47:23;1179.78;;;156.40;;
59024;SDS011;44806;48.008;13.666;2022-08-19T00:49:52;1078.43;;;149.38;;
59024;SDS011;44806;48.008;13.666;2022-08-19T00:52:23;937.53;;;137.13;;
59024;SDS011;44806;48.008;13.666;2022-08-19T00:54:56;1962.68;;;242.55;;
59024;SDS011;44806;48.008;13.666;2022-08-19T00:57:26;418.55;;;63.58;;
59024;SDS011;44806;48.008;13.666;2022-08-19T00:59:56;381.58;;;62.42;;
59024;SDS011;44806;48.008;13.666;2022-08-19T01:02:25;462.17;;;72.05;;
59024;SDS011;44806;48.008;13.666;2022-08-19T01:04:55;1999.90;;;252.32;;
59024;SDS011;44806;48.008;13.666;2022-08-19T01:07:22;808.47;;;107.03;;
59024;SDS011;44806;48.008;13.666;2022-08-19T01:09:50;472.60;;;75.97;;
59024;SDS011;44806;48.008;13.666;2022-08-19T01:12:17;1563.60;;;212.63;;
59024;SDS011;44806;48.008;13.666;2022-08-19T01:14:45;625.83;;;94.43;;
59024;SDS011;44806;48.008;13.666;2022-08-19T01:17:13;898.03;;;116.57;;
59024;SDS011;44806;48.008;13.666;2022-08-19T01:19:42;885.40;;;109.68;;
59024;SDS011;44806;48.008;13.666;2022-08-19T01:22:14;1999.90;;;277.45;;
59024;SDS011;44806;48.008;13.666;2022-08-19T01:24:47;403.55;;;77.28;;
59024;SDS011;44806;48.008;13.666;2022-08-19T01:27:14;380.88;;;47.55;;
59024;SDS011;44806;48.008;13.666;2022-08-19T01:29:42;555.00;;;83.20;;
59024;SDS011;44806;48.008;13.666;2022-08-19T01:32:11;1693.53;;;257.02;;
59024;SDS011;44806;48.008;13.666;2022-08-19T01:34:43;261.45;;;39.55;;
59024;SDS011;44806;48.008;13.666;2022-08-19T01:37:13;347.63;;;54.63;;
59024;SDS011;44806;48.008;13.666;2022-08-19T01:39:41;1999.90;;;266.70;;
59024;SDS011;44806;48.008;13.666;2022-08-19T01:42:10;356.33;;;57.50;;
59024;SDS011;44806;48.008;13.666;2022-08-19T01:44:37;394.58;;;62.17;;
59024;SDS011;44806;48.008;13.666;2022-08-19T01:47:06;880.78;;;124.93;;
59024;SDS011;44806;48.008;13.666;2022-08-19T01:49:34;472.90;;;69.22;;
59024;SDS011;44806;48.008;13.666;2022-08-19T01:52:02;626.53;;;84.88;;
59024;SDS011;44806;48.008;13.666;2022-08-19T01:54:30;1332.68;;;173.23;;
59024;SDS011;44806;48.008;13.666;2022-08-19T01:56:59;428.20;;;76.88;;
59024;SDS011;44806;48.008;13.666;2022-08-19T01:59:33;1733.15;;;211.15;;
59024;SDS011;44806;48.008;13.666;2022-08-19T02:02:02;420.75;;;53.20;;
59024;SDS011;44806;48.008;13.666;2022-08-19T02:04:33;868.20;;;128.70;;
59024;SDS011;44806;48.008;13.666;2022-08-19T02:07:01;1107.22;;;141.10;;
59024;SDS011;44806;48.008;13.666;2022-08-19T02:09:28;436.85;;;61.25;;
59024;SDS011;44806;48.008;13.666;2022-08-19T02:11:56;755.22;;;106.10;;
59024;SDS011;44806;48.008;13.666;2022-08-19T02:14:26;848.90;;;125.65;;
59024;SDS011;44806;48.008;13.666;2022-08-19T02:16:54;426.58;;;58.72;;
59024;SDS011;44806;48.008;13.666;2022-08-19T02:19:21;732.25;;;99.45;;
59024;SDS011;44806;48.008;13.666;2022-08-19T02:21:49;795.55;;;106.47;;
59024;SDS011;44806;48.008;13.666;2022-08-19T02:24:16;385.15;;;60.38;;
59024;SDS011;44806;48.008;13.666;2022-08-19T02:26:43;420.10;;;70.38;;
59024;SDS011;44806;48.008;13.666;2022-08-19T02:29:10;454.83;;;66.75;;
59024;SDS011;44806;48.008;13.666;2022-08-19T02:31:37;466.20;;;58.40;;
59024;SDS011;44806;48.008;13.666;2022-08-19T02:34:06;397.30;;;61.50;;
59024;SDS011;44806;48.008;13.666;2022-08-19T02:36:33;477.58;;;79.75;;
59024;SDS011;44806;48.008;13.666;2022-08-19T02:39:00;896.35;;;110.88;;
59024;SDS011;44806;48.008;13.666;2022-08-19T02:41:27;328.75;;;58.42;;
59024;SDS011;44806;48.008;13.666;2022-08-19T02:43:57;1028.25;;;147.00;;
59024;SDS011;44806;48.008;13.666;2022-08-19T02:46:26;729.92;;;127.15;;
59024;SDS011;44806;48.008;13.666;2022-08-19T02:48:55;670.72;;;118.60;;
59024;SDS011;44806;48.008;13.666;2022-08-19T02:51:26;668.97;;;86.75;;
59024;SDS011;44806;48.008;13.666;2022-08-19T02:53:54;305.75;;;47.13;;
59024;SDS011;44806;48.008;13.666;2022-08-19T02:56:22;411.73;;;51.95;;
59024;SDS011;44806;48.008;13.666;2022-08-19T02:58:50;775.30;;;134.57;;
59024;SDS011;44806;48.008;13.666;2022-08-19T03:01:21;637.05;;;88.53;;
59024;SDS011;44806;48.008;13.666;2022-08-19T03:03:52;793.90;;;100.57;;
59024;SDS011;44806;48.008;13.666;2022-08-19T03:06:20;947.85;;;125.78;;
59024;SDS011;44806;48.008;13.666;2022-08-19T03:08:49;1120.60;;;133.13;;
59024;SDS011;44806;48.008;13.666;2022-08-19T03:11:17;325.23;;;54.92;;
59024;SDS011;44806;48.008;13.666;2022-08-19T03:13:46;949.60;;;134.98;;
59024;SDS011;44806;48.008;13.666;2022-08-19T03:16:19;441.20;;;67.38;;
59024;SDS011;44806;48.008;13.666;2022-08-19T03:18:47;942.90;;;141.98;;
59024;SDS011;44806;48.008;13.666;2022-08-19T03:21:15;390.77;;;62.80;;
59024;SDS011;44806;48.008;13.666;2022-08-19T03:23:43;1752.13;;;235.90;;
59024;SDS011;44806;48.008;13.666;2022-08-19T03:26:11;410.48;;;66.15;;
59024;SDS011;44806;48.008;13.666;2022-08-19T03:28:39;321.38;;;51.38;;
59024;SDS011;44806;48.008;13.666;2022-08-19T03:31:09;334.67;;;55.38;;
59024;SDS011;44806;48.008;13.666;2022-08-19T03:33:38;1565.32;;;187.82;;
59024;SDS011;44806;48.008;13.666;2022-08-19T03:36:06;297.70;;;41.72;;
59024;SDS011;44806;48.008;13.666;2022-08-19T03:38:35;1047.88;;;146.80;;
59024;SDS011;44806;48.008;13.666;2022-08-19T03:41:09;687.38;;;99.15;;
59024;SDS011;44806;48.008;13.666;2022-08-19T03:43:40;553.78;;;76.78;;
59024;SDS011;44806;48.008;13.666;2022-08-19T03:46:09;446.63;;;64.97;;
59024;SDS011;44806;48.008;13.666;2022-08-19T03:48:38;447.20;;;67.10;;
59024;SDS011;44806;48.008;13.666;2022-08-19T03:51:06;1999.90;;;295.05;;
59024;SDS011;44806;48.008;13.666;2022-08-19T03:53:34;482.38;;;64.65;;
59024;SDS011;44806;48.008;13.666;2022-08-19T03:56:02;309.92;;;60.25;;
59024;SDS011;44806;48.008;13.666;2022-08-19T03:58:30;888.78;;;118.82;;
59024;SDS011;44806;48.008;13.666;2022-08-19T04:00:58;565.22;;;78.63;;
59024;SDS011;44806;48.008;13.666;2022-08-19T04:03:25;1083.45;;;145.55;;
59024;SDS011;44806;48.008;13.666;2022-08-19T04:05:53;696.28;;;107.53;;
59024;SDS011;44806;48.008;13.666;2022-08-19T04:08:20;665.47;;;93.53;;
59024;SDS011;44806;48.008;13.666;2022-08-19T04:10:47;460.30;;;71.70;;
59024;SDS011;44806;48.008;13.666;2022-08-19T04:13:15;954.03;;;136.30;;
59024;SDS011;44806;48.008;13.666;2022-08-19T04:15:44;675.28;;;94.90;;
59024;SDS011;44806;48.008;13.666;2022-08-19T04:18:13;751.03;;;102.30;;
59024;SDS011;44806;48.008;13.666;2022-08-19T04:20:44;609.03;;;93.40;;
59024;SDS011;44806;48.008;13.666;2022-08-19T04:23:12;388.08;;;59.53;;
59024;SDS011;44806;48.008;13.666;2022-08-19T04:25:42;605.17;;;90.82;;
59024;SDS011;44806;48.008;13.666;2022-08-19T04:28:12;901.97;;;116.55;;
59024;SDS011;44806;48.008;13.666;2022-08-19T04:30:40;367.67;;;48.65;;
59024;SDS011;44806;48.008;13.666;2022-08-19T04:33:13;1400.45;;;189.40;;
59024;SDS011;44806;48.008;13.666;2022-08-19T04:35:44;1106.80;;;150.20;;
59024;SDS011;44806;48.008;13.666;2022-08-19T04:38:13;432.98;;;75.68;;
59024;SDS011;44806;48.008;13.666;2022-08-19T04:40:41;339.10;;;64.10;;
59024;SDS011;44806;48.008;13.666;2022-08-19T04:43:27;442.33;;;56.30;;
59024;SDS011;44806;48.008;13.666;2022-08-19T04:45:55;878.92;;;120.03;;
59024;SDS011;44806;48.008;13.666;2022-08-19T04:48:24;356.95;;;42.80;;
59024;SDS011;44806;48.008;13.666;2022-08-19T04:50:51;543.20;;;79.05;;
59024;SDS011;44806;48.008;13.666;2022-08-19T04:53:23;1262.50;;;178.48;;
59024;SDS011;44806;48.008;13.666;2022-08-19T04:55:54;1008.30;;;133.20;;
59024;SDS011;44806;48.008;13.666;2022-08-19T04:58:22;425.90;;;66.88;;
59024;SDS011;44806;48.008;13.666;2022-08-19T05:00:49;320.27;;;63.22;;
59024;SDS011;44806;48.008;13.666;2022-08-19T05:03:17;1100.55;;;150.48;;
59024;SDS011;44806;48.008;13.666;2022-08-19T05:05:47;365.55;;;63.10;;
59024;SDS011;44806;48.008;13.666;2022-08-19T05:08:17;467.80;;;74.40;;
59024;SDS011;44806;48.008;13.666;2022-08-19T05:10:46;312.67;;;47.17;;
59024;SDS011;44806;48.008;13.666;2022-08-19T05:13:14;617.05;;;75.93;;
59024;SDS011;44806;48.008;13.666;2022-08-19T05:15:43;341.45;;;61.17;;
59024;SDS011;44806;48.008;13.666;2022-08-19T05:18:10;465.52;;;64.72;;
59024;SDS011;44806;48.008;13.666;2022-08-19T05:20:57;373.25;;;48.38;;
59024;SDS011;44806;48.008;13.666;2022-08-19T05:23:41;492.30;;;83.07;;
59024;SDS011;44806;48.008;13.666;2022-08-19T05:26:09;826.95;;;113.82;;
59024;SDS011;44806;48.008;13.666;2022-08-19T05:28:37;266.60;;;35.45;;
59024;SDS011;44806;48.008;13.666;2022-08-19T05:31:04;490.67;;;59.33;;
59024;SDS011;44806;48.008;13.666;2022-08-19T05:33:31;1887.57;;;219.85;;
59024;SDS011;44806;48.008;13.666;2022-08-19T05:36:00;430.15;;;66.88;;
59024;SDS011;44806;48.008;13.666;2022-08-19T05:38:27;467.40;;;77.72;;
59024;SDS011;44806;48.008;13.666;2022-08-19T05:40:55;394.80;;;57.28;;
59024;SDS011;44806;48.008;13.666;2022-08-19T05:43:22;400.42;;;62.47;;
59024;SDS011;44806;48.008;13.666;2022-08-19T05:45:50;632.58;;;97.13;;
59024;SDS011;44806;48.008;13.666;2022-08-19T05:48:17;1233.80;;;145.88;;
59024;SDS011;44806;48.008;13.666;2022-08-19T05:50:45;561.65;;;70.38;;
59024;SDS011;44806;48.008;13.666;2022-08-19T05:53:16;391.08;;;56.72;;
59024;SDS011;44806;48.008;13.666;2022-08-19T05:55:44;431.63;;;65.13;;
59024;SDS011;44806;48.008;13.666;2022-08-19T05:58:11;1697.75;;;230.18;;
59024;SDS011;44806;48.008;13.666;2022-08-19T06:00:38;1048.82;;;139.73;;
59024;SDS011;44806;48.008;13.666;2022-08-19T06:03:06;328.13;;;60.17;;
59024;SDS011;44806;48.008;13.666;2022-08-19T06:05:33;802.95;;;120.78;;
59024;SDS011;44806;48.008;13.666;2022-08-19T06:08:03;429.48;;;58.47;;
59024;SDS011;44806;48.008;13.666;2022-08-19T06:10:33;1633.32;;;234.70;;
59024;SDS011;44806;48.008;13.666;2022-08-19T06:13:01;457.00;;;67.93;;
59024;SDS011;44806;48.008;13.666;2022-08-19T06:15:29;482.08;;;70.50;;
59024;SDS011;44806;48.008;13.666;2022-08-19T06:17:56;455.55;;;75.13;;
59024;SDS011;44806;48.008;13.666;2022-08-19T06:20:23;414.88;;;80.80;;
59024;SDS011;44806;48.008;13.666;2022-08-19T06:22:51;1033.85;;;132.32;;
59024;SDS011;44806;48.008;13.666;2022-08-19T06:25:18;859.80;;;123.90;;
59024;SDS011;44806;48.008;13.666;2022-08-19T06:27:47;666.08;;;102.22;;
59024;SDS011;44806;48.008;13.666;2022-08-19T06:30:14;1166.57;;;153.45;;
59024;SDS011;44806;48.008;13.666;2022-08-19T06:32:41;359.13;;;76.55;;
59024;SDS011;44806;48.008;13.666;2022-08-19T06:35:10;1062.35;;;142.30;;
59024;SDS011;44806;48.008;13.666;2022-08-19T06:37:39;461.42;;;82.05;;
59024;SDS011;44806;48.008;13.666;2022-08-19T06:40:08;936.42;;;110.63;;
59024;SDS011;44806;48.008;13.666;2022-08-19T06:42:37;655.55;;;107.82;;
59024;SDS011;44806;48.008;13.666;2022-08-19T06:45:06;1207.65;;;163.13;;
59024;SDS011;44806;48.008;13.666;2022-08-19T06:47:34;732.03;;;105.88;;
59024;SDS011;44806;48.008;13.666;2022-08-19T06:50:05;828.58;;;123.68;;
59024;SDS011;44806;48.008;13.666;2022-08-19T06:52:33;1288.60;;;174.50;;
59024;SDS011;44806;48.008;13.666;2022-08-19T06:55:01;302.90;;;50.85;;
59024;SDS011;44806;48.008;13.666;2022-08-19T06:57:29;1999.90;;;267.17;;
59024;SDS011;44806;48.008;13.666;2022-08-19T06:59:58;728.47;;;104.32;;
59024;SDS011;44806;48.008;13.666;2022-08-19T07:02:27;409.90;;;62.25;;
59024;SDS011;44806;48.008;13.666;2022-08-19T07:04:54;824.30;;;108.88;;
59024;SDS011;44806;48.008;13.666;2022-08-19T07:07:23;362.60;;;57.88;;
59024;SDS011;44806;48.008;13.666;2022-08-19T07:09:50;1649.63;;;202.02;;
59024;SDS011;44806;48.008;13.666;2022-08-19T07:12:18;1227.25;;;156.82;;
59024;SDS011;44806;48.008;13.666;2022-08-19T07:14:45;336.17;;;49.55;;
59024;SDS011;44806;48.008;13.666;2022-08-19T07:17:14;474.23;;;68.07;;
59024;SDS011;44806;48.008;13.666;2022-08-19T07:19:43;1876.10;;;232.18;;
59024;SDS011;44806;48.008;13.666;2022-08-19T07:22:10;1999.90;;;306.75;;
59024;SDS011;44806;48.008;13.666;2022-08-19T07:24:37;351.10;;;45.60;;
59024;SDS011;44806;48.008;13.666;2022-08-19T07:27:05;1007.67;;;136.00;;
59024;SDS011;44806;48.008;13.666;2022-08-19T07:29:35;482.23;;;71.53;;
59024;SDS011;44806;48.008;13.666;2022-08-19T07:32:03;1999.90;;;286.70;;
59024;SDS011;44806;48.008;13.666;2022-08-19T07:34:31;1144.00;;;142.02;;
59024;SDS011;44806;48.008;13.666;2022-08-19T07:37:03;377.77;;;60.70;;
59024;SDS011;44806;48.008;13.666;2022-08-19T07:39:32;1043.25;;;138.05;;
59024;SDS011;44806;48.008;13.666;2022-08-19T07:42:01;1999.90;;;286.85;;
59024;SDS011;44806;48.008;13.666;2022-08-19T07:44:32;390.90;;;61.78;;
59024;SDS011;44806;48.008;13.666;2022-08-19T07:47:00;883.38;;;118.05;;
59024;SDS011;44806;48.008;13.666;2022-08-19T07:49:34;390.20;;;62.95;;
59024;SDS011;44806;48.008;13.666;2022-08-19T07:52:04;1999.90;;;303.95;;
59024;SDS011;44806;48.008;13.666;2022-08-19T07:54:33;393.40;;;58.92;;
59024;SDS011;44806;48.008;13.666;2022-08-19T07:57:03;1492.38;;;208.32;;
59024;SDS011;44806;48.008;13.666;2022-08-19T07:59:31;1250.13;;;145.82;;
59024;SDS011;44806;48.008;13.666;2022-08-19T08:01:58;1509.18;;;195.75;;
59024;SDS011;44806;48.008;13.666;2022-08-19T08:04:27;926.83;;;127.43;;
59024;SDS011;44806;48.008;13.666;2022-08-19T08:07:14;357.17;;;46.67;;
59024;SDS011;44806;48.008;13.666;2022-08-19T08:09:59;1999.90;;;263.90;;
59024;SDS011;44806;48.008;13.666;2022-08-19T08:12:27;575.42;;;88.20;;
59024;SDS011;44806;48.008;13.666;2022-08-19T08:14:57;1999.90;;;276.58;;
59024;SDS011;44806;48.008;13.666;2022-08-19T08:17:28;401.65;;;57.50;;
59024;SDS011;44806;48.008;13.666;2022-08-19T08:19:57;1142.97;;;147.18;;
59024;SDS011;44806;48.008;13.666;2022-08-19T08:22:29;1999.90;;;289.50;;
59024;SDS011;44806;48.008;13.666;2022-08-19T08:25:14;1196.40;;;170.77;;
59024;SDS011;44806;48.008;13.666;2022-08-19T08:27:45;861.65;;;134.40;;
59024;SDS011;44806;48.008;13.666;2022-08-19T08:30:13;500.77;;;78.32;;
59024;SDS011;44806;48.008;13.666;2022-08-19T08:32:42;1999.90;;;296.73;;
59024;SDS011;44806;48.008;13.666;2022-08-19T08:35:11;1999.90;;;305.65;;
59024;SDS011;44806;48.008;13.666;2022-08-19T08:37:41;919.50;;;142.07;;
59024;SDS011;44806;48.008;13.666;2022-08-19T08:40:15;1999.90;;;289.23;;
59024;SDS011;44806;48.008;13.666;2022-08-19T08:42:47;1999.90;;;299.42;;
59024;SDS011;44806;48.008;13.666;2022-08-19T08:45:18;832.15;;;116.03;;
59024;SDS011;44806;48.008;13.666;2022-08-19T08:47:47;1999.90;;;304.20;;
59024;SDS011;44806;48.008;13.666;2022-08-19T08:50:18;1591.53;;;237.43;;
59024;SDS011;44806;48.008;13.666;2022-08-19T08:52:50;1988.78;;;263.42;;
59024;SDS011;44806;48.008;13.666;2022-08-19T08:55:23;1999.90;;;301.30;;
59024;SDS011;44806;48.008;13.666;2022-08-19T08:57:55;1999.90;;;354.83;;
59024;SDS011;44806;48.008;13.666;2022-08-19T09:00:27;1999.90;;;328.75;;
59024;SDS011;44806;48.008;13.666;2022-08-19T09:02:57;1982.05;;;264.48;;
59024;SDS011;44806;48.008;13.666;2022-08-19T09:05:26;1999.90;;;281.92;;
59024;SDS011;44806;48.008;13.666;2022-08-19T09:08:07;975.85;;;138.38;;
59024;SDS011;44806;48.008;13.666;2022-08-19T09:10:37;1999.90;;;280.90;;
59024;SDS011;44806;48.008;13.666;2022-08-19T09:13:10;679.85;;;100.10;;
59024;SDS011;44806;48.008;13.666;2022-08-19T09:15:47;1999.90;;;343.90;;
59024;SDS011;44806;48.008;13.666;2022-08-19T09:18:18;484.52;;;73.95;;
59024;SDS011;44806;48.008;13.666;2022-08-19T09:20:46;1999.90;;;309.65;;
59024;SDS011;44806;48.008;13.666;2022-08-19T09:23:15;1999.90;;;314.35;;
59024;SDS011;44806;48.008;13.666;2022-08-19T09:25:42;1999.90;;;298.95;;
59024;SDS011;44806;48.008;13.666;2022-08-19T09:28:09;1921.78;;;244.55;;
59024;SDS011;44806;48.008;13.666;2022-08-19T09:30:38;1999.90;;;301.52;;
59024;SDS011;44806;48.008;13.666;2022-08-19T09:33:07;1999.90;;;283.40;;
59024;SDS011;44806;48.008;13.666;2022-08-19T09:35:35;1999.90;;;383.77;;
59024;SDS011;44806;48.008;13.666;2022-08-19T09:38:02;1999.90;;;302.05;;
59024;SDS011;44806;48.008;13.666;2022-08-19T09:40:31;1999.90;;;342.05;;
59024;SDS011;44806;48.008;13.666;2022-08-19T09:42:58;1999.90;;;317.80;;
59024;SDS011;44806;48.008;13.666;2022-08-19T09:45:27;1999.90;;;303.77;;
59024;SDS011;44806;48.008;13.666;2022-08-19T09:47:55;1999.90;;;306.08;;
59024;SDS011;44806;48.008;13.666;2022-08-19T09:50:23;1999.90;;;290.63;;
59024;SDS011;44806;48.008;13.666;2022-08-19T09:52:51;1999.90;;;339.70;;
59024;SDS011;44806;48.008;13.666;2022-08-19T09:55:22;1999.90;;;333.52;;
59024;SDS011;44806;48.008;13.666;2022-08-19T09:57:50;1999.90;;;314.80;;
59024;SDS011;44806;48.008;13.666;2022-08-19T10:00:20;1999.90;;;300.65;;
59024;SDS011;44806;48.008;13.666;2022-08-19T10:02:47;1999.90;;;278.27;;
59024;SDS011;44806;48.008;13.666;2022-08-19T10:05:14;1999.90;;;283.55;;
59024;SDS011;44806;48.008;13.666;2022-08-19T10:07:59;1999.90;;;293.33;;
59024;SDS011;44806;48.008;13.666;2022-08-19T10:10:26;1999.90;;;289.52;;
59024;SDS011;44806;48.008;13.666;2022-08-19T10:12:55;1999.90;;;312.60;;
59024;SDS011;44806;48.008;13.666;2022-08-19T10:15:25;1999.90;;;294.65;;
59024;SDS011;44806;48.008;13.666;2022-08-19T10:17:52;1999.90;;;292.98;;
59024;SDS011;44806;48.008;13.666;2022-08-19T10:20:20;1999.90;;;295.65;;
59024;SDS011;44806;48.008;13.666;2022-08-19T10:22:47;1999.90;;;288.95;;
59024;SDS011;44806;48.008;13.666;2022-08-19T10:25:15;1999.90;;;334.58;;
59024;SDS011;44806;48.008;13.666;2022-08-19T10:27:42;1999.90;;;314.77;;
59024;SDS011;44806;48.008;13.666;2022-08-19T10:30:12;1999.90;;;354.20;;
59024;SDS011;44806;48.008;13.666;2022-08-19T10:32:39;1999.90;;;314.83;;
59024;SDS011;44806;48.008;13.666;2022-08-19T10:35:07;1999.90;;;292.02;;
59024;SDS011;44806;48.008;13.666;2022-08-19T10:37:34;1999.90;;;339.70;;
59024;SDS011;44806;48.008;13.666;2022-08-19T10:40:03;1999.90;;;313.77;;
59024;SDS011;44806;48.008;13.666;2022-08-19T10:42:33;1999.90;;;335.33;;
59024;SDS011;44806;48.008;13.666;2022-08-19T10:45:01;1987.28;;;262.23;;
59024;SDS011;44806;48.008;13.666;2022-08-19T10:47:32;1999.90;;;299.92;;
59024;SDS011;44806;48.008;13.666;2022-08-19T10:49:59;1999.90;;;340.58;;
59024;SDS011;44806;48.008;13.666;2022-08-19T10:52:49;1937.70;;;297.10;;
59024;SDS011;44806;48.008;13.666;2022-08-19T10:55:17;1999.90;;;321.75;;
59024;SDS011;44806;48.008;13.666;2022-08-19T11:00:36;1999.90;;;284.98;;
59024;SDS011;44806;48.008;13.666;2022-08-19T11:03:05;1994.50;;;310.52;;
59024;SDS011;44806;48.008;13.666;2022-08-19T11:05:32;1999.90;;;360.02;;
59024;SDS011;44806;48.008;13.666;2022-08-19T11:07:59;1999.90;;;317.85;;
59024;SDS011;44806;48.008;13.666;2022-08-19T11:10:30;1999.90;;;305.67;;
59024;SDS011;44806;48.008;13.666;2022-08-19T11:12:57;1999.90;;;329.50;;
59024;SDS011;44806;48.008;13.666;2022-08-19T11:15:25;1999.90;;;335.90;;
59024;SDS011;44806;48.008;13.666;2022-08-19T11:17:53;1999.90;;;306.80;;
59024;SDS011;44806;48.008;13.666;2022-08-19T11:20:22;1847.97;;;287.60;;
59024;SDS011;44806;48.008;13.666;2022-08-19T11:22:50;1999.90;;;313.38;;
59024;SDS011;44806;48.008;13.666;2022-08-19T11:25:18;1999.90;;;356.90;;
59024;SDS011;44806;48.008;13.666;2022-08-19T11:27:45;1999.90;;;289.60;;
59024;SDS011;44806;48.008;13.666;2022-08-19T11:30:16;1999.90;;;334.63;;
59024;SDS011;44806;48.008;13.666;2022-08-19T11:32:46;1999.90;;;322.02;;
59024;SDS011;44806;48.008;13.666;2022-08-19T11:35:13;1999.90;;;312.92;;
59024;SDS011;44806;48.008;13.666;2022-08-19T11:37:42;1999.90;;;297.23;;
59024;SDS011;44806;48.008;13.666;2022-08-19T11:40:10;1942.45;;;276.83;;
59024;SDS011;44806;48.008;13.666;2022-08-19T11:42:38;1999.90;;;345.42;;
59024;SDS011;44806;48.008;13.666;2022-08-19T11:45:26;1999.90;;;354.80;;
59024;SDS011;44806;48.008;13.666;2022-08-19T11:47:54;1988.30;;;270.80;;
59024;SDS011;44806;48.008;13.666;2022-08-19T11:50:22;1999.90;;;296.17;;
59024;SDS011;44806;48.008;13.666;2022-08-19T11:52:51;1999.90;;;317.88;;
59024;SDS011;44806;48.008;13.666;2022-08-19T11:55:21;1999.90;;;315.27;;
59024;SDS011;44806;48.008;13.666;2022-08-19T11:57:48;1999.90;;;304.90;;
59024;SDS011;44806;48.008;13.666;2022-08-19T12:00:16;1999.90;;;307.42;;
59024;SDS011;44806;48.008;13.666;2022-08-19T12:02:43;1997.47;;;300.25;;
59024;SDS011;44806;48.008;13.666;2022-08-19T12:05:10;1999.90;;;336.50;;
59024;SDS011;44806;48.008;13.666;2022-08-19T12:07:38;1999.90;;;325.05;;
59024;SDS011;44806;48.008;13.666;2022-08-19T12:10:10;1999.90;;;497.65;;
59024;SDS011;44806;48.008;13.666;2022-08-19T12:12:37;1999.90;;;297.00;;
59024;SDS011;44806;48.008;13.666;2022-08-19T12:15:08;1999.90;;;375.02;;
59024;SDS011;44806;48.008;13.666;2022-08-19T12:17:41;1999.90;;;339.92;;
59024;SDS011;44806;48.008;13.666;2022-08-19T12:20:09;1916.15;;;352.08;;
59024;SDS011;44806;48.008;13.666;2022-08-19T12:22:38;1999.90;;;280.85;;
59024;SDS011;44806;48.008;13.666;2022-08-19T12:25:06;1999.90;;;317.27;;
59024;SDS011;44806;48.008;13.666;2022-08-19T12:27:35;1972.32;;;271.75;;
59024;SDS011;44806;48.008;13.666;2022-08-19T12:30:03;1999.90;;;316.48;;
59024;SDS011;44806;48.008;13.666;2022-08-19T12:32:31;1932.30;;;252.23;;
59024;SDS011;44806;48.008;13.666;2022-08-19T12:35:00;1999.90;;;299.67;;
59024;SDS011;44806;48.008;13.666;2022-08-19T12:37:27;1999.90;;;329.58;;
59024;SDS011;44806;48.008;13.666;2022-08-19T12:39:54;1999.90;;;329.98;;
59024;SDS011;44806;48.008;13.666;2022-08-19T12:42:22;1999.90;;;326.52;;
59024;SDS011;44806;48.008;13.666;2022-08-19T12:44:50;1999.90;;;322.05;;
59024;SDS011;44806;48.008;13.666;2022-08-19T12:47:18;1999.90;;;288.67;;
59024;SDS011;44806;48.008;13.666;2022-08-19T12:49:46;1999.90;;;302.75;;
59024;SDS011;44806;48.008;13.666;2022-08-19T12:52:14;1999.90;;;282.73;;
59024;SDS011;44806;48.008;13.666;2022-08-19T12:54:41;1886.50;;;258.05;;
59024;SDS011;44806;48.008;13.666;2022-08-19T12:57:09;1999.90;;;350.45;;
59024;SDS011;44806;48.008;13.666;2022-08-19T12:59:37;1999.90;;;306.45;;
59024;SDS011;44806;48.008;13.666;2022-08-19T13:02:07;1999.90;;;301.10;;
59024;SDS011;44806;48.008;13.666;2022-08-19T13:04:34;1999.90;;;291.55;;
59024;SDS011;44806;48.008;13.666;2022-08-19T13:07:05;1999.90;;;320.05;;
59024;SDS011;44806;48.008;13.666;2022-08-19T13:09:34;1999.90;;;285.95;;
59024;SDS011;44806;48.008;13.666;2022-08-19T13:12:01;1999.90;;;311.58;;
59024;SDS011;44806;48.008;13.666;2022-08-19T13:14:32;1999.90;;;321.38;;
59024;SDS011;44806;48.008;13.666;2022-08-19T13:17:00;1981.18;;;313.27;;
59024;SDS011;44806;48.008;13.666;2022-08-19T13:19:29;1973.43;;;320.98;;
59024;SDS011;44806;48.008;13.666;2022-08-19T13:21:58;1999.90;;;316.20;;
59024;SDS011;44806;48.008;13.666;2022-08-19T13:24:25;1993.00;;;306.00;;
59024;SDS011;44806;48.008;13.666;2022-08-19T13:26:52;1999.90;;;305.67;;
59024;SDS011;44806;48.008;13.666;2022-08-19T13:29:21;1999.90;;;303.92;;
59024;SDS011;44806;48.008;13.666;2022-08-19T13:32:06;1999.90;;;294.30;;
59024;SDS011;44806;48.008;13.666;2022-08-19T13:34:52;1999.90;;;274.85;;
59024;SDS011;44806;48.008;13.666;2022-08-19T13:37:20;1999.90;;;309.95;;
59024;SDS011;44806;48.008;13.666;2022-08-19T13:40:06;1973.60;;;276.73;;
59024;SDS011;44806;48.008;13.666;2022-08-19T13:42:36;1969.95;;;282.83;;
59024;SDS011;44806;48.008;13.666;2022-08-19T13:45:04;1887.63;;;266.25;;
59024;SDS011;44806;48.008;13.666;2022-08-19T13:47:32;1948.43;;;293.77;;
59024;SDS011;44806;48.008;13.666;2022-08-19T13:50:01;1999.90;;;328.50;;
59024;SDS011;44806;48.008;13.666;2022-08-19T13:52:31;1997.32;;;287.90;;
59024;SDS011;44806;48.008;13.666;2022-08-19T13:54:58;1908.57;;;258.23;;